createdAt,value
2022-08-12T00:00:01.304Z,17.67
2022-08-12T00:02:47.015Z,17.35
2022-08-12T00:05:34.266Z,16.80
2022-08-12T00:08:30.828Z,18.58
2022-08-12T00:11:22.928Z,16.65
2022-08-12T00:14:10.187Z,17.27
2022-08-12T00:16:56.845Z,17.63
2022-08-12T00:19:42.247Z,17.90
2022-08-12T00:22:29.204Z,16.88
2022-08-12T00:25:17.765Z,16.25
2022-08-12T00:28:05.128Z,16.95
2022-08-12T00:30:53.432Z,17.10
2022-08-12T00:33:51.871Z,18.17
2022-08-12T00:36:43.759Z,18.13
2022-08-12T00:39:31.358Z,16.30
2022-08-12T00:42:10.948Z,17.63
2022-08-12T00:44:40.657Z,16.02
2022-08-12T00:47:24.158Z,18.48
2022-08-12T00:49:54.375Z,17.08
2022-08-12T00:52:23.227Z,16.73
2022-08-12T00:54:53.361Z,17.52
2022-08-12T00:57:23.711Z,15.77
2022-08-12T00:59:53.730Z,18.27
2022-08-12T01:02:28.701Z,16.52
2022-08-12T01:05:17.396Z,17.98
2022-08-12T01:08:04.361Z,16.83
2022-08-12T01:10:52.532Z,14.88
2022-08-12T01:13:22.200Z,16.40
2022-08-12T01:15:52.755Z,18.15
2022-08-12T01:18:23.642Z,16.65
2022-08-12T01:21:04.422Z,17.70
2022-08-12T01:24:29.721Z,15.57
2022-08-12T01:26:56.884Z,17.30
2022-08-12T01:29:32.803Z,16.80
2022-08-12T01:32:06.577Z,17.90
2022-08-12T01:34:38.587Z,16.40
2022-08-12T01:37:09.697Z,16.65
2022-08-12T01:40:36.920Z,15.45
2022-08-12T01:42:36.345Z,14.05
2022-08-12T01:45:04.946Z,14.98
2022-08-12T01:47:49.882Z,15.93
2022-08-12T01:50:26.545Z,16.05
2022-08-12T01:53:08.294Z,16.38
2022-08-12T01:55:38.961Z,16.25
2022-08-12T01:58:26.997Z,16.90
2022-08-12T02:00:59.749Z,15.27
2022-08-12T02:04:00.210Z,17.00
2022-08-12T02:07:01.129Z,17.02
2022-08-12T02:10:00.377Z,15.00
2022-08-12T02:12:43.693Z,15.70
2022-08-12T02:15:23.629Z,14.57
2022-08-12T02:18:08.347Z,16.45
2022-08-12T02:20:51.541Z,16.80
2022-08-12T02:23:25.487Z,17.17
2022-08-12T02:25:57.052Z,16.08
2022-08-12T02:28:26.034Z,16.75
2022-08-12T02:30:56.300Z,16.25
2022-08-12T02:33:25.568Z,16.60
2022-08-12T02:35:55.506Z,16.55
2022-08-12T02:38:27.437Z,16.70
2022-08-12T02:40:57.049Z,16.73
2022-08-12T02:43:34.800Z,16.25
2022-08-12T02:46:13.733Z,15.50
2022-08-12T02:48:48.303Z,14.68
2022-08-12T02:51:20.543Z,15.70
2022-08-12T02:54:05.184Z,15.25
2022-08-12T02:56:38.026Z,13.88
2022-08-12T02:59:12.141Z,14.65
2022-08-12T03:01:47.681Z,13.52
2022-08-12T03:04:24.455Z,13.07
2022-08-12T03:07:02.278Z,14.60
2022-08-12T03:10:03.585Z,13.05
2022-08-12T03:12:26.713Z,14.93
2022-08-12T03:15:06.652Z,14.40
2022-08-12T03:17:46.322Z,13.82
2022-08-12T03:20:40.946Z,13.57
2022-08-12T03:23:11.723Z,13.35
2022-08-12T03:25:53.725Z,14.68
2022-08-12T03:28:36.872Z,14.38
2022-08-12T03:31:06.849Z,12.07
2022-08-12T03:33:38.411Z,14.60
2022-08-12T03:36:08.785Z,12.00
2022-08-12T03:38:40.536Z,12.85
2022-08-12T03:41:35.437Z,12.50
2022-08-12T03:44:25.828Z,13.18
2022-08-12T03:47:19.289Z,12.23
2022-08-12T03:50:07.204Z,12.57
2022-08-12T03:52:53.072Z,13.40
2022-08-12T03:55:39.000Z,13.20
2022-08-12T03:58:25.956Z,11.55
2022-08-12T04:00:54.407Z,11.73
2022-08-12T04:03:40.220Z,12.40
2022-08-12T04:06:11.702Z,12.43
2022-08-12T04:08:40.835Z,11.97
2022-08-12T04:11:32.039Z,12.95
2022-08-12T04:14:07.361Z,11.90
2022-08-12T04:16:36.383Z,12.27
2022-08-12T04:19:05.389Z,12.73
2022-08-12T04:21:36.479Z,13.32
2022-08-12T04:24:11.534Z,12.57
2022-08-12T04:26:40.949Z,13.77
2022-08-12T04:29:10.451Z,13.88
2022-08-12T04:31:41.567Z,11.38
2022-08-12T04:34:13.006Z,13.13
2022-08-12T04:36:44.058Z,13.73
2022-08-12T04:39:13.910Z,12.63
2022-08-12T04:41:58.329Z,11.25
2022-08-12T04:44:28.132Z,11.95
2022-08-12T04:46:56.968Z,12.27
2022-08-12T04:49:26.398Z,13.10
2022-08-12T04:51:59.530Z,13.35
2022-08-12T04:54:28.423Z,12.57
2022-08-12T04:57:03.462Z,13.80
2022-08-12T04:59:47.690Z,15.02
2022-08-12T05:02:20.543Z,12.40
2022-08-12T05:04:51.157Z,13.20
2022-08-12T05:07:21.327Z,13.68
2022-08-12T05:09:59.101Z,14.15
2022-08-12T05:12:36.620Z,14.02
2022-08-12T05:15:19.734Z,14.40
2022-08-12T05:17:55.617Z,14.93
2022-08-12T05:20:26.192Z,14.13
2022-08-12T05:23:13.089Z,14.98
2022-08-12T05:25:43.358Z,14.05
2022-08-12T05:28:13.072Z,15.88
2022-08-12T05:30:42.695Z,14.45
2022-08-12T05:33:11.722Z,14.40
2022-08-12T05:35:43.446Z,14.25
2022-08-12T05:38:32.743Z,13.73
2022-08-12T05:41:01.599Z,15.27
2022-08-12T05:43:30.015Z,15.25
2022-08-12T05:45:58.158Z,16.70
2022-08-12T05:48:26.292Z,15.38
2022-08-12T05:50:54.492Z,15.85
2022-08-12T05:53:24.133Z,14.73
2022-08-12T05:55:54.859Z,16.85
2022-08-12T05:58:23.015Z,15.70
2022-08-12T06:00:51.309Z,15.90
2022-08-12T06:03:21.422Z,15.77
2022-08-12T06:05:54.864Z,16.98
2022-08-12T06:08:26.172Z,18.27
2022-08-12T06:10:57.169Z,16.80
2022-08-12T06:13:28.242Z,16.98
2022-08-12T06:16:15.964Z,16.25
2022-08-12T06:18:44.427Z,16.30
2022-08-12T06:21:14.609Z,15.02
2022-08-12T06:23:45.983Z,15.38
2022-08-12T06:26:16.570Z,15.75
2022-08-12T06:28:45.383Z,17.10
2022-08-12T06:31:26.304Z,18.35
2022-08-12T06:34:00.983Z,19.13
2022-08-12T06:36:44.294Z,17.35
2022-08-12T06:39:15.006Z,18.33
2022-08-12T06:42:02.686Z,16.85
2022-08-12T06:44:50.443Z,17.95
2022-08-12T06:47:19.543Z,18.15
2022-08-12T06:49:49.555Z,20.38
2022-08-12T06:52:25.035Z,18.73
2022-08-12T06:54:55.729Z,21.48
2022-08-12T06:58:05.824Z,18.42
2022-08-12T07:00:21.851Z,20.52
2022-08-12T07:03:22.404Z,19.90
2022-08-12T07:05:50.827Z,19.67
2022-08-12T07:08:19.715Z,20.70
2022-08-12T07:10:53.535Z,20.27
2022-08-12T07:13:22.169Z,20.42
2022-08-12T07:15:50.405Z,22.45
2022-08-12T07:18:20.011Z,21.67
2022-08-12T07:20:52.750Z,21.80
2022-08-12T07:23:21.990Z,22.73
2022-08-12T07:25:55.181Z,20.85
2022-08-12T07:28:29.487Z,23.25
2022-08-12T07:30:58.872Z,25.83
2022-08-12T07:33:29.250Z,25.38
2022-08-12T07:35:59.476Z,26.80
2022-08-12T07:38:31.388Z,24.33
2022-08-12T07:41:05.662Z,26.08
2022-08-12T07:43:35.428Z,26.13
2022-08-12T07:46:05.838Z,25.73
2022-08-12T07:48:39.066Z,27.85
2022-08-12T07:51:08.274Z,27.05
2022-08-12T07:53:47.681Z,24.85
2022-08-12T07:56:27.572Z,26.33
2022-08-12T07:58:59.590Z,29.77
2022-08-12T08:01:28.585Z,28.40
2022-08-12T08:04:18.688Z,28.13
2022-08-12T08:06:47.980Z,31.50
2022-08-12T08:09:18.724Z,29.98
2022-08-12T08:12:06.207Z,32.72
2022-08-12T08:14:34.357Z,32.95
2022-08-12T08:17:06.881Z,36.72
2022-08-12T08:20:01.863Z,36.67
2022-08-12T08:22:40.694Z,36.78
2022-08-12T08:25:35.191Z,35.45
2022-08-12T08:28:01.960Z,38.22
2022-08-12T08:30:31.980Z,39.75
2022-08-12T08:33:00.308Z,39.75
2022-08-12T08:35:43.216Z,40.13
2022-08-12T08:38:17.605Z,41.50
2022-08-12T08:42:15.319Z,41.50
2022-08-12T08:44:10.941Z,40.08
2022-08-12T08:46:39.907Z,44.13
2022-08-12T08:49:08.521Z,42.55
2022-08-12T08:51:37.087Z,42.67
2022-08-12T08:54:06.892Z,43.90
2022-08-12T08:56:43.812Z,46.47
2022-08-12T08:59:14.652Z,46.15
2022-08-12T09:01:44.293Z,43.90
2022-08-12T09:05:07.064Z,44.65
2022-08-12T09:07:16.921Z,43.83
2022-08-12T09:10:02.728Z,40.65
2022-08-12T09:12:54.991Z,42.58
2022-08-12T09:15:35.569Z,45.05
2022-08-12T09:18:08.464Z,48.75
2022-08-12T09:20:38.726Z,47.40
2022-08-12T09:24:00.369Z,48.65
2022-08-12T09:26:04.392Z,47.83
2022-08-12T09:28:34.449Z,45.55
2022-08-12T09:32:07.437Z,47.05
2022-08-12T09:34:29.085Z,48.03
2022-08-12T09:36:59.906Z,46.92
2022-08-12T09:40:03.265Z,42.88
2022-08-12T09:42:43.499Z,46.20
2022-08-12T09:45:24.208Z,42.35
2022-08-12T09:48:20.236Z,48.72
2022-08-12T09:50:55.270Z,45.83
2022-08-12T09:53:36.036Z,46.88
2022-08-12T09:56:58.451Z,41.67
2022-08-12T09:58:57.414Z,46.05
2022-08-12T10:01:35.167Z,47.80
2022-08-12T10:04:19.917Z,46.70
2022-08-12T10:06:54.636Z,46.35
2022-08-12T10:09:28.209Z,45.25
2022-08-12T10:12:14.485Z,44.85
2022-08-12T10:14:59.259Z,44.85
2022-08-12T10:17:27.496Z,45.83
2022-08-12T10:19:59.429Z,42.20
2022-08-12T10:22:36.706Z,41.03
2022-08-12T10:26:09.967Z,43.17
2022-08-12T10:28:33.572Z,41.97
2022-08-12T10:31:01.798Z,46.45
2022-08-12T10:33:54.897Z,46.85
2022-08-12T10:36:40.018Z,48.05
2022-08-12T10:40:01.440Z,41.47
2022-08-12T10:42:16.476Z,43.17
2022-08-12T10:45:01.079Z,43.50
2022-08-12T10:48:19.037Z,44.17
2022-08-12T10:50:35.706Z,43.65
2022-08-12T10:53:19.485Z,41.20
2022-08-12T10:55:55.562Z,42.35
2022-08-12T10:58:28.373Z,45.60
2022-08-12T11:01:49.197Z,40.92
2022-08-12T11:04:23.837Z,42.47
2022-08-12T11:07:07.812Z,42.28
2022-08-12T11:09:41.504Z,41.42
2022-08-12T11:12:55.830Z,42.78
2022-08-12T11:14:59.257Z,46.25
2022-08-12T11:17:34.140Z,46.55
2022-08-12T11:20:15.266Z,44.83
2022-08-12T11:22:57.827Z,43.92
2022-08-12T11:25:56.892Z,43.80
2022-08-12T11:28:17.768Z,42.58
2022-08-12T11:31:01.871Z,43.67
2022-08-12T11:34:04.875Z,44.22
2022-08-12T11:36:21.878Z,43.67
2022-08-12T11:38:51.469Z,42.28
2022-08-12T11:41:31.380Z,40.40
2022-08-12T11:44:30.676Z,45.30
2022-08-12T11:46:51.374Z,46.33
2022-08-12T11:49:31.827Z,39.78
2022-08-12T11:52:17.380Z,43.67
2022-08-12T11:54:54.481Z,45.78
2022-08-12T11:58:15.210Z,44.03
2022-08-12T12:03:01.932Z,45.95
2022-08-12T12:05:41.632Z,44.45
2022-08-12T12:08:37.499Z,43.35
2022-08-12T12:11:09.419Z,45.42
2022-08-12T12:14:06.952Z,46.00
2022-08-12T12:16:27.316Z,41.40
2022-08-12T12:18:58.135Z,42.08
2022-08-12T12:21:47.272Z,43.78
2022-08-12T12:24:14.452Z,40.47
2022-08-12T12:27:00.952Z,43.78
2022-08-12T12:30:18.299Z,40.75
2022-08-12T12:32:29.256Z,43.38
2022-08-12T12:35:18.351Z,42.15
2022-08-12T12:38:05.432Z,43.85
2022-08-12T12:40:43.794Z,39.65
2022-08-12T12:43:13.886Z,44.97
2022-08-12T12:45:46.567Z,44.22
2022-08-12T12:48:16.081Z,43.83
2022-08-12T12:50:51.481Z,43.05
2022-08-12T12:54:06.982Z,41.28
2022-08-12T12:56:15.663Z,44.35
2022-08-12T12:58:44.301Z,44.47
2022-08-12T13:01:25.351Z,42.63
2022-08-12T13:04:01.779Z,42.75
2022-08-12T13:06:32.379Z,42.10
2022-08-12T13:09:03.811Z,40.63
2022-08-12T13:11:42.004Z,44.55
2022-08-12T13:14:28.607Z,42.35
2022-08-12T13:17:02.440Z,43.35
2022-08-12T13:19:38.887Z,44.42
2022-08-12T13:22:20.389Z,42.65
2022-08-12T13:24:54.487Z,44.80
2022-08-12T13:27:35.793Z,42.72
2022-08-12T13:30:06.750Z,44.30
2022-08-12T13:32:37.284Z,42.13
2022-08-12T13:35:20.296Z,42.03
2022-08-12T13:37:56.139Z,37.90
2022-08-12T13:40:26.570Z,43.17
2022-08-12T13:42:57.908Z,41.83
2022-08-12T13:45:26.553Z,43.88
2022-08-12T13:48:00.083Z,46.58
2022-08-12T13:50:32.500Z,43.53
2022-08-12T13:53:23.163Z,42.97
2022-08-12T13:55:59.823Z,42.55
2022-08-12T13:58:34.931Z,45.65
2022-08-12T14:01:05.717Z,47.10
2022-08-12T14:03:51.430Z,42.75
2022-08-12T14:06:21.454Z,44.97
2022-08-12T14:08:54.795Z,42.08
2022-08-12T14:11:25.079Z,47.90
2022-08-12T14:14:03.976Z,45.63
2022-08-12T14:16:48.548Z,44.10
2022-08-12T14:19:22.250Z,45.75
2022-08-12T14:21:59.712Z,42.08
2022-08-12T14:24:31.534Z,41.92
2022-08-12T14:27:02.054Z,45.95
2022-08-12T14:29:38.137Z,43.42
2022-08-12T14:32:19.488Z,46.88
2022-08-12T14:34:51.399Z,44.58
2022-08-12T14:37:55.280Z,42.17
2022-08-12T14:40:09.765Z,44.47
2022-08-12T14:42:38.394Z,42.25
2022-08-12T14:45:07.997Z,45.30
2022-08-12T14:47:51.349Z,40.70
2022-08-12T14:50:58.350Z,43.60
2022-08-12T14:59:23.257Z,45.03
2022-08-12T15:01:52.409Z,47.22
2022-08-12T15:04:29.120Z,44.47
2022-08-12T15:07:00.264Z,46.13
2022-08-12T15:09:29.540Z,42.25
2022-08-12T15:12:03.361Z,40.20
2022-08-12T15:14:32.481Z,44.15
2022-08-12T15:17:07.088Z,49.70
2022-08-12T15:20:33.261Z,44.95
2022-08-12T15:22:38.483Z,42.65
2022-08-12T15:25:09.019Z,39.10
2022-08-12T15:28:05.498Z,46.53
2022-08-12T15:30:35.043Z,38.85
2022-08-12T15:33:12.879Z,41.60
2022-08-12T15:35:53.259Z,46.03
2022-08-12T15:38:27.113Z,39.30
2022-08-12T15:40:59.032Z,44.45
2022-08-12T15:43:51.458Z,45.55
2022-08-12T15:46:18.126Z,47.83
2022-08-12T15:48:49.567Z,47.50
2022-08-12T15:51:58.889Z,45.47
2022-08-12T15:54:34.698Z,46.78
2022-08-12T15:57:07.975Z,51.88
2022-08-12T16:00:03.740Z,58.90
2022-08-12T16:02:29.331Z,56.45
2022-08-12T16:04:58.359Z,55.25
2022-08-12T16:07:32.864Z,52.83
2022-08-12T16:10:09.087Z,53.60
2022-08-12T16:12:43.129Z,50.72
2022-08-12T16:15:13.419Z,57.80
2022-08-12T16:18:18.805Z,50.00
2022-08-12T16:20:33.568Z,47.92
2022-08-12T16:23:35.729Z,48.58
2022-08-12T16:26:05.138Z,48.65
2022-08-12T16:28:34.781Z,46.72
2022-08-12T16:31:03.629Z,45.88
2022-08-12T16:33:59.514Z,44.20
2022-08-12T16:36:25.979Z,43.97
2022-08-12T16:38:54.442Z,41.25
2022-08-12T16:41:25.632Z,45.35
2022-08-12T16:43:56.668Z,44.55
2022-08-12T16:46:31.934Z,43.08
2022-08-12T16:49:04.287Z,42.65
2022-08-12T16:51:45.939Z,47.85
2022-08-12T16:54:16.622Z,44.15
2022-08-12T16:56:51.166Z,43.85
2022-08-12T16:59:26.409Z,45.20
2022-08-12T17:02:18.035Z,45.40
2022-08-12T17:05:04.674Z,38.42
2022-08-12T17:07:38.003Z,38.50
2022-08-12T17:10:08.252Z,42.42
2022-08-12T17:12:38.383Z,43.50
2022-08-12T17:15:50.346Z,45.55
2022-08-12T17:18:38.842Z,43.55
2022-08-12T17:20:48.272Z,42.60
2022-08-12T17:23:19.409Z,42.42
2022-08-12T17:25:49.275Z,44.80
2022-08-12T17:28:21.215Z,37.75
2022-08-12T17:30:59.496Z,45.50
2022-08-12T17:33:33.582Z,39.67
2022-08-12T17:36:05.866Z,41.88
2022-08-12T17:38:35.716Z,36.25
2022-08-12T17:41:22.774Z,43.75
2022-08-12T17:43:59.038Z,44.65
2022-08-12T17:46:33.752Z,39.05
2022-08-12T17:49:06.956Z,38.00
2022-08-12T17:52:02.849Z,40.03
2022-08-12T17:54:32.825Z,40.67
2022-08-12T17:57:03.032Z,42.05
2022-08-12T17:59:48.490Z,40.00
2022-08-12T18:02:22.534Z,43.00
2022-08-12T18:05:05.731Z,38.60
2022-08-12T18:07:39.501Z,36.92
2022-08-12T18:10:08.801Z,40.80
2022-08-12T18:12:42.777Z,39.47
2022-08-12T18:15:26.539Z,40.65
2022-08-12T18:18:17.455Z,39.67
2022-08-12T18:20:47.958Z,35.85
2022-08-12T18:23:23.588Z,35.28
2022-08-12T18:26:15.454Z,35.83
2022-08-12T18:28:48.147Z,37.95
2022-08-12T18:31:23.278Z,38.42
2022-08-12T18:33:52.802Z,37.55
2022-08-12T18:36:22.655Z,36.05
2022-08-12T18:38:56.119Z,35.92
2022-08-12T18:41:34.181Z,32.42
2022-08-12T18:44:09.419Z,33.33
2022-08-12T18:46:53.736Z,34.53
2022-08-12T18:49:29.686Z,36.67
2022-08-12T18:52:04.356Z,35.70
2022-08-12T18:54:35.843Z,37.35
2022-08-12T18:57:16.452Z,36.42
2022-08-12T18:59:59.882Z,35.40
2022-08-12T19:02:39.846Z,34.40
2022-08-12T19:05:11.917Z,35.00
2022-08-12T19:07:49.455Z,34.70
2022-08-12T19:10:27.087Z,32.30
2022-08-12T19:13:21.164Z,38.13
2022-08-12T19:15:54.514Z,33.42
2022-08-12T19:18:30.079Z,34.85
2022-08-12T19:21:11.687Z,31.13
2022-08-12T19:23:44.050Z,30.50
2022-08-12T19:26:13.166Z,31.95
2022-08-12T19:28:42.727Z,29.85
2022-08-12T19:31:56.502Z,25.83
2022-08-12T19:37:22.944Z,30.17
2022-08-12T19:40:08.961Z,27.13
2022-08-12T19:42:42.949Z,30.42
2022-08-12T19:45:14.004Z,25.85
2022-08-12T19:47:46.540Z,27.00
2022-08-12T19:50:19.871Z,27.38
2022-08-12T19:52:51.163Z,28.05
2022-08-12T19:55:21.813Z,26.65
2022-08-12T19:58:01.518Z,27.30
2022-08-12T20:00:34.955Z,27.80
2022-08-12T20:03:05.369Z,27.20
2022-08-12T20:06:05.170Z,26.00
2022-08-12T20:08:31.330Z,26.15
2022-08-12T20:12:11.511Z,25.98
2022-08-12T20:14:00.373Z,24.77
2022-08-12T20:19:52.187Z,23.50
2022-08-12T20:22:24.678Z,23.77
2022-08-12T20:25:01.282Z,25.35
2022-08-12T20:28:03.255Z,23.98
2022-08-12T20:30:52.667Z,27.58
2022-08-12T20:33:18.990Z,24.23
2022-08-12T20:36:13.547Z,23.67
2022-08-12T20:38:46.586Z,23.63
2022-08-12T20:41:16.702Z,27.40
2022-08-12T20:43:49.303Z,24.92
2022-08-12T20:46:19.126Z,24.88
2022-08-12T20:48:54.934Z,25.92
2022-08-12T20:51:27.548Z,24.33
2022-08-12T20:53:59.666Z,22.95
2022-08-12T20:56:33.085Z,23.35
2022-08-12T20:59:04.950Z,22.98
2022-08-12T21:01:45.936Z,24.67
2022-08-12T21:04:33.845Z,22.63
2022-08-12T21:07:04.717Z,23.45
2022-08-12T21:09:42.699Z,22.67
2022-08-12T21:12:31.014Z,27.70
2022-08-12T21:15:24.229Z,22.40
2022-08-12T21:18:10.735Z,26.10
2022-08-12T21:20:49.717Z,24.42
2022-08-12T21:23:21.371Z,23.67
2022-08-12T21:25:52.581Z,20.67
2022-08-12T21:28:30.693Z,24.73
2022-08-12T21:32:37.616Z,24.08
2022-08-12T21:34:06.443Z,23.55
2022-08-12T21:36:39.728Z,21.63
2022-08-12T21:39:18.623Z,21.63
2022-08-12T21:41:52.836Z,22.27
2022-08-12T21:44:24.495Z,23.23
2022-08-12T21:47:19.982Z,20.02
2022-08-12T21:49:55.292Z,23.92
2022-08-12T21:52:34.690Z,23.83
2022-08-12T21:55:03.996Z,20.50
2022-08-12T21:57:50.705Z,22.25
2022-08-12T22:00:32.175Z,20.75
2022-08-12T22:03:25.014Z,23.02
2022-08-12T22:06:31.500Z,20.70
2022-08-12T22:09:16.454Z,17.67
2022-08-12T22:11:49.373Z,19.08
2022-08-12T22:14:30.008Z,16.33
2022-08-12T22:17:01.623Z,18.17
2022-08-12T22:19:35.178Z,15.73
2022-08-12T22:22:05.467Z,17.17
2022-08-12T22:24:33.950Z,18.08
2022-08-12T22:27:22.935Z,18.75
2022-08-12T22:30:16.707Z,15.30
2022-08-12T22:32:49.808Z,17.85
2022-08-12T22:35:56.080Z,18.13
2022-08-12T22:38:26.778Z,19.10
2022-08-12T22:41:01.005Z,18.27
2022-08-12T22:43:59.878Z,17.67
2022-08-12T22:46:51.855Z,17.67
2022-08-12T22:49:37.291Z,15.82
2022-08-12T22:52:12.761Z,16.23
2022-08-12T22:55:00.229Z,15.55
2022-08-12T22:57:49.024Z,13.45
2022-08-12T23:00:26.994Z,14.48
2022-08-12T23:03:02.968Z,15.00
2022-08-12T23:05:36.811Z,15.48
2022-08-12T23:08:22.733Z,17.20
2022-08-12T23:10:51.800Z,16.30
2022-08-12T23:13:42.916Z,17.80
2022-08-12T23:16:28.550Z,16.27
2022-08-12T23:19:09.609Z,15.82
2022-08-12T23:22:05.988Z,14.80
2022-08-12T23:24:30.309Z,16.80
2022-08-12T23:27:16.865Z,17.55
2022-08-12T23:30:17.509Z,18.20
2022-08-12T23:32:37.314Z,15.85
2022-08-12T23:35:08.569Z,17.40
2022-08-12T23:37:47.746Z,18.63
2022-08-12T23:40:22.453Z,15.65
2022-08-12T23:42:54.953Z,18.92
2022-08-12T23:45:31.500Z,17.50
2022-08-12T23:48:03.016Z,17.52
2022-08-12T23:50:33.426Z,15.70
2022-08-12T23:53:05.665Z,17.58
2022-08-12T23:55:40.434Z,15.30
2022-08-12T23:58:21.772Z,17.63
